createdAt,value
2019-06-10T00:00:13.577Z,19.77
2019-06-10T00:02:42.804Z,17.87
2019-06-10T00:05:13.435Z,16.02
2019-06-10T00:07:43.664Z,16.75
2019-06-10T00:10:15.293Z,19.75
2019-06-10T00:12:45.619Z,19.30
2019-06-10T00:15:16.199Z,16.05
2019-06-10T00:17:53.389Z,20.40
2019-06-10T00:20:18.328Z,18.25
2019-06-10T00:22:48.540Z,16.67
2019-06-10T00:25:21.867Z,18.70
2019-06-10T00:27:52.281Z,18.32
2019-06-10T00:30:22.620Z,16.48
2019-06-10T00:32:52.808Z,22.22
2019-06-10T00:35:23.103Z,18.30
2019-06-10T00:37:54.337Z,17.48
2019-06-10T00:40:24.545Z,18.30
2019-06-10T00:42:54.891Z,20.72
2019-06-10T00:45:25.160Z,18.07
2019-06-10T00:48:12.373Z,19.85
2019-06-10T00:50:37.743Z,18.32
2019-06-10T00:53:09.899Z,20.15
2019-06-10T00:55:41.548Z,23.42
2019-06-10T00:58:14.047Z,17.10
2019-06-10T01:00:48.298Z,19.75
2019-06-10T01:03:20.726Z,19.17
2019-06-10T01:05:50.894Z,17.85
2019-06-10T01:08:21.578Z,18.57
2019-06-10T01:10:52.366Z,18.00
2019-06-10T01:13:22.693Z,18.37
2019-06-10T01:15:53.965Z,20.60
2019-06-10T01:18:34.737Z,20.27
2019-06-10T01:20:56.104Z,17.27
2019-06-10T01:23:26.536Z,17.02
2019-06-10T01:25:56.725Z,18.12
2019-06-10T01:28:27.020Z,19.48
2019-06-10T01:30:57.210Z,23.47
2019-06-10T01:33:27.438Z,17.15
2019-06-10T01:35:57.627Z,18.12
2019-06-10T01:38:27.866Z,17.20
2019-06-10T01:41:01.326Z,22.67
2019-06-10T01:43:32.085Z,22.65
2019-06-10T01:46:02.511Z,17.23
2019-06-10T01:48:44.237Z,18.92
2019-06-10T01:51:04.689Z,18.95
2019-06-10T01:53:35.020Z,22.05
2019-06-10T01:56:05.236Z,22.70
2019-06-10T01:58:35.425Z,18.00
2019-06-10T02:01:10.838Z,23.05
2019-06-10T02:03:41.503Z,20.32
2019-06-10T02:06:17.695Z,18.82
2019-06-10T02:08:44.931Z,19.92
2019-06-10T02:11:17.216Z,19.98
2019-06-10T02:13:46.996Z,21.82
2019-06-10T02:16:17.775Z,22.25
2019-06-10T02:19:00.176Z,18.82
2019-06-10T02:21:24.326Z,17.55
2019-06-10T02:23:53.018Z,19.30
2019-06-10T02:26:23.725Z,19.60
2019-06-10T02:28:54.069Z,22.05
2019-06-10T02:31:30.531Z,21.85
2019-06-10T02:33:56.127Z,26.62
2019-06-10T02:36:31.072Z,18.52
2019-06-10T02:38:58.173Z,22.13
2019-06-10T02:41:32.142Z,25.00
2019-06-10T02:44:03.955Z,23.90
2019-06-10T02:46:36.017Z,30.97
2019-06-10T02:49:21.423Z,29.87
2019-06-10T02:51:36.304Z,27.73
2019-06-10T02:54:06.487Z,33.18
2019-06-10T02:56:37.018Z,29.90
2019-06-10T02:59:07.335Z,26.15
2019-06-10T03:01:38.656Z,26.82
2019-06-10T03:04:13.512Z,30.35
2019-06-10T03:06:44.717Z,29.27
2019-06-10T03:09:14.091Z,20.97
2019-06-10T03:11:45.086Z,21.15
2019-06-10T03:14:17.659Z,21.42
2019-06-10T03:16:49.654Z,22.42
2019-06-10T03:19:37.068Z,22.02
2019-06-10T03:21:52.237Z,18.15
2019-06-10T03:24:25.170Z,23.27
2019-06-10T03:26:56.080Z,17.82
2019-06-10T03:29:27.882Z,23.50
2019-06-10T03:31:58.404Z,22.42
2019-06-10T03:34:36.357Z,21.27
2019-06-10T03:37:02.343Z,19.85
2019-06-10T03:39:32.415Z,25.15
2019-06-10T03:42:02.590Z,17.27
2019-06-10T03:44:33.118Z,18.65
2019-06-10T03:47:03.561Z,19.70
2019-06-10T03:49:46.640Z,18.57
2019-06-10T03:52:05.651Z,21.70
2019-06-10T03:54:35.911Z,19.60
2019-06-10T03:57:06.130Z,17.57
2019-06-10T03:59:36.316Z,20.32
2019-06-10T04:02:06.608Z,19.57
2019-06-10T04:04:38.876Z,20.85
2019-06-10T04:09:53.874Z,21.45
2019-06-10T04:12:25.644Z,19.30
2019-06-10T04:14:56.073Z,26.23
2019-06-10T04:17:27.333Z,24.37
2019-06-10T04:20:09.482Z,21.68
2019-06-10T04:22:30.250Z,21.48
2019-06-10T04:25:02.819Z,19.35
2019-06-10T04:27:33.300Z,23.55
2019-06-10T04:30:04.353Z,23.87
2019-06-10T04:32:34.664Z,18.70
2019-06-10T04:35:05.945Z,23.77
2019-06-10T04:37:36.195Z,23.47
2019-06-10T04:40:08.102Z,24.65
2019-06-10T04:42:38.282Z,29.30
2019-06-10T04:45:08.597Z,20.17
2019-06-10T04:47:38.802Z,25.30
2019-06-10T04:50:23.628Z,25.77
2019-06-10T04:52:42.943Z,20.60
2019-06-10T04:55:13.747Z,24.63
2019-06-10T04:57:43.983Z,20.15
2019-06-10T05:00:14.843Z,31.35
2019-06-10T05:02:45.277Z,26.80
2019-06-10T05:05:16.540Z,22.75
2019-06-10T05:07:46.824Z,21.25
2019-06-10T05:10:17.517Z,20.57
2019-06-10T05:12:49.822Z,20.48
2019-06-10T05:15:22.003Z,19.32
2019-06-10T05:17:52.770Z,22.90
2019-06-10T05:20:39.117Z,24.60
2019-06-10T05:22:54.956Z,24.35
2019-06-10T05:25:25.710Z,22.98
2019-06-10T05:27:57.228Z,27.27
2019-06-10T05:30:29.580Z,32.58
2019-06-10T05:33:02.972Z,30.88
2019-06-10T05:35:33.951Z,17.87
2019-06-10T05:38:06.262Z,27.52
2019-06-10T05:40:36.729Z,23.45
2019-06-10T05:43:08.030Z,21.87
2019-06-10T05:45:38.259Z,17.83
2019-06-10T05:48:14.476Z,20.10
2019-06-10T05:50:43.329Z,22.75
2019-06-10T05:53:13.519Z,20.60
2019-06-10T05:55:43.923Z,20.32
2019-06-10T05:58:14.457Z,26.10
2019-06-10T06:00:45.846Z,18.32
2019-06-10T06:03:16.086Z,24.23
2019-06-10T06:05:46.443Z,20.88
2019-06-10T06:08:16.676Z,25.70
2019-06-10T06:10:46.927Z,27.40
2019-06-10T06:13:23.090Z,34.25
2019-06-10T06:15:52.945Z,20.20
2019-06-10T06:18:24.140Z,26.07
2019-06-10T06:20:54.363Z,35.98
2019-06-10T06:23:24.553Z,22.85
2019-06-10T06:25:54.781Z,20.77
2019-06-10T06:28:25.810Z,21.93
2019-06-10T06:30:56.087Z,22.15
2019-06-10T06:33:27.311Z,22.90
2019-06-10T06:35:57.593Z,25.53
2019-06-10T06:38:28.855Z,19.30
2019-06-10T06:40:59.025Z,18.52
2019-06-10T06:43:32.804Z,28.98
2019-06-10T06:46:02.472Z,31.20
2019-06-10T06:48:36.999Z,22.87
2019-06-10T06:51:08.566Z,22.73
2019-06-10T06:53:46.277Z,19.15
2019-06-10T06:56:09.589Z,20.25
2019-06-10T06:58:43.013Z,21.23
2019-06-10T07:01:14.694Z,19.25
2019-06-10T07:03:45.301Z,18.60
2019-06-10T07:06:16.749Z,18.67
2019-06-10T07:09:00.372Z,19.70
2019-06-10T07:11:24.226Z,15.58
2019-06-10T07:14:15.161Z,17.95
2019-06-10T07:16:46.538Z,20.37
2019-06-10T07:19:18.168Z,23.85
2019-06-10T07:22:05.399Z,27.75
2019-06-10T07:24:20.241Z,24.87
2019-06-10T07:26:54.674Z,21.70
2019-06-10T07:31:53.607Z,27.95
2019-06-10T07:34:24.119Z,26.27
2019-06-10T07:36:55.357Z,21.87
2019-06-10T07:39:25.623Z,25.00
2019-06-10T07:41:56.836Z,24.43
2019-06-10T07:44:27.008Z,17.80
2019-06-10T07:46:57.230Z,14.60
2019-06-10T07:49:27.531Z,27.32
2019-06-10T07:52:12.063Z,25.23
2019-06-10T07:54:29.603Z,28.00
2019-06-10T07:57:02.263Z,30.70
2019-06-10T07:59:33.835Z,19.02
2019-06-10T08:02:04.438Z,20.95
2019-06-10T08:04:35.248Z,19.60
2019-06-10T08:07:06.512Z,16.05
2019-06-10T08:09:39.041Z,16.93
2019-06-10T08:12:09.453Z,19.60
2019-06-10T08:14:42.737Z,34.20
2019-06-10T08:17:13.585Z,62.80
2019-06-10T08:19:49.578Z,59.23
2019-06-10T08:22:29.913Z,70.78
2019-06-10T08:24:48.795Z,24.72
2019-06-10T08:27:18.978Z,23.20
2019-06-10T08:29:54.187Z,32.88
2019-06-10T08:32:21.259Z,53.85
2019-06-10T08:34:53.040Z,32.08
2019-06-10T08:37:23.635Z,30.32
2019-06-10T08:39:54.004Z,26.23
2019-06-10T08:42:24.202Z,17.25
2019-06-10T08:44:54.505Z,19.42
2019-06-10T08:47:24.803Z,29.25
2019-06-10T08:49:55.534Z,32.33
2019-06-10T08:52:25.782Z,28.07
2019-06-10T08:54:56.022Z,22.62
2019-06-10T08:57:26.876Z,25.02
2019-06-10T08:59:57.189Z,22.22
2019-06-10T09:02:27.494Z,27.60
2019-06-10T09:04:57.821Z,26.12
2019-06-10T09:07:28.049Z,17.23
2019-06-10T09:09:58.346Z,18.82
2019-06-10T09:12:33.159Z,19.12
2019-06-10T09:15:03.179Z,13.98
2019-06-10T09:17:33.946Z,22.48
2019-06-10T09:20:06.467Z,17.17
2019-06-10T09:22:36.761Z,12.88
2019-06-10T09:25:08.684Z,12.20
2019-06-10T09:27:40.086Z,12.07
2019-06-10T09:30:13.458Z,13.65
2019-06-10T09:32:48.509Z,14.23
2019-06-10T09:35:16.993Z,18.37
2019-06-10T09:37:50.806Z,18.20
2019-06-10T09:40:19.807Z,9.63
2019-06-10T09:42:53.026Z,16.60
2019-06-10T09:45:22.479Z,12.43
2019-06-10T09:47:58.843Z,20.68
2019-06-10T09:52:57.043Z,16.97
2019-06-10T09:55:32.748Z,10.30
2019-06-10T09:58:03.185Z,11.63
2019-06-10T10:00:36.746Z,10.05
2019-06-10T10:03:07.024Z,12.18
2019-06-10T10:05:38.504Z,10.98
2019-06-10T10:08:09.250Z,12.28
2019-06-10T10:10:41.653Z,11.90
2019-06-10T10:13:13.043Z,7.28
2019-06-10T10:15:45.536Z,11.45
2019-06-10T10:18:16.984Z,8.23
2019-06-10T10:20:49.768Z,12.73
2019-06-10T10:23:19.138Z,15.25
2019-06-10T10:25:50.990Z,10.55
2019-06-10T10:28:23.021Z,11.88
2019-06-10T10:30:57.615Z,9.48
2019-06-10T10:33:29.719Z,10.82
2019-06-10T10:35:58.181Z,7.95
2019-06-10T10:38:29.454Z,11.95
2019-06-10T10:40:59.729Z,8.48
2019-06-10T10:43:35.844Z,9.20
2019-06-10T10:48:34.336Z,15.98
2019-06-10T10:51:04.746Z,9.75
2019-06-10T10:53:35.548Z,6.80
2019-06-10T10:56:05.850Z,13.43
2019-06-10T10:58:37.167Z,11.15
2019-06-10T11:01:07.360Z,12.47
2019-06-10T11:03:37.669Z,22.85
2019-06-10T11:06:08.004Z,21.02
2019-06-10T11:08:38.227Z,22.58
2019-06-10T11:11:13.205Z,12.85
2019-06-10T11:13:43.215Z,14.30
2019-06-10T11:18:42.491Z,13.48
2019-06-10T11:21:14.165Z,11.85
2019-06-10T11:23:46.108Z,13.30
2019-06-10T11:26:16.157Z,8.28
2019-06-10T11:28:47.358Z,11.65
2019-06-10T11:31:17.696Z,10.05
2019-06-10T11:33:48.724Z,9.18
2019-06-10T11:36:19.149Z,9.07
2019-06-10T11:38:51.165Z,10.72
2019-06-10T11:41:23.644Z,10.45
2019-06-10T11:43:57.740Z,12.18
2019-06-10T11:49:00.040Z,10.60
2019-06-10T11:51:30.238Z,12.47
2019-06-10T11:54:04.726Z,10.93
2019-06-10T11:56:34.948Z,10.95
2019-06-10T11:59:09.493Z,5.95
2019-06-10T12:04:12.667Z,12.35
2019-06-10T12:06:42.554Z,10.08
2019-06-10T12:09:13.780Z,6.42
2019-06-10T12:11:44.368Z,8.08
2019-06-10T12:14:15.007Z,8.70
2019-06-10T12:21:46.221Z,14.60
2019-06-10T12:24:16.394Z,11.88
2019-06-10T12:26:46.574Z,9.50
2019-06-10T12:29:16.376Z,7.92
2019-06-10T12:31:46.429Z,11.10
2019-06-10T12:34:16.657Z,8.63
2019-06-10T12:36:53.526Z,10.13
2019-06-10T12:39:22.912Z,7.80
2019-06-10T12:41:57.560Z,6.92
2019-06-10T12:44:45.576Z,7.30
2019-06-10T12:47:15.794Z,6.30
2019-06-10T12:49:46.087Z,6.55
2019-06-10T12:52:16.373Z,6.05
2019-06-10T12:54:46.559Z,8.60
2019-06-10T12:57:16.911Z,5.62
2019-06-10T12:59:47.643Z,5.80
2019-06-10T13:02:23.280Z,17.77
2019-06-10T13:04:52.124Z,10.03
2019-06-10T13:07:24.349Z,17.12
2019-06-10T13:09:57.646Z,7.97
2019-06-10T13:12:33.338Z,8.88
2019-06-10T13:15:09.817Z,5.03
2019-06-10T13:17:43.770Z,6.15
2019-06-10T13:20:13.802Z,4.42
2019-06-10T13:22:44.079Z,9.25
2019-06-10T13:25:16.360Z,6.10
2019-06-10T13:27:46.637Z,8.60
2019-06-10T13:30:17.297Z,8.78
2019-06-10T13:32:47.514Z,18.40
2019-06-10T13:35:19.438Z,8.55
2019-06-10T13:37:49.653Z,12.58
2019-06-10T13:40:22.574Z,13.30
2019-06-10T13:42:52.909Z,6.87
2019-06-10T13:45:25.659Z,11.18
2019-06-10T13:47:55.322Z,5.45
2019-06-10T13:50:25.865Z,6.90
2019-06-10T13:52:56.097Z,5.65
2019-06-10T13:55:26.424Z,4.50
2019-06-10T13:57:56.624Z,10.13
2019-06-10T14:00:40.850Z,5.15
2019-06-10T14:03:00.059Z,14.28
2019-06-10T14:05:34.011Z,7.90
2019-06-10T14:08:05.317Z,5.05
2019-06-10T14:10:34.195Z,11.30
2019-06-10T14:13:07.466Z,11.00
2019-06-10T14:15:36.315Z,13.03
2019-06-10T14:18:07.434Z,7.25
2019-06-10T14:20:39.957Z,10.78
2019-06-10T14:23:13.157Z,7.85
2019-06-10T14:25:43.201Z,6.03
2019-06-10T14:28:32.263Z,11.22
2019-06-10T14:30:45.301Z,8.90
2019-06-10T14:33:16.734Z,6.87
2019-06-10T14:38:16.386Z,6.90
2019-06-10T14:40:46.610Z,8.20
2019-06-10T14:43:16.867Z,10.98
2019-06-10T14:45:48.149Z,5.22
2019-06-10T14:48:18.414Z,6.87
2019-06-10T14:50:49.001Z,8.75
2019-06-10T14:53:19.195Z,6.55
2019-06-10T14:55:52.918Z,10.45
2019-06-10T14:58:23.040Z,7.78
2019-06-10T15:00:56.271Z,9.15
2019-06-10T15:03:27.744Z,4.70
2019-06-10T15:05:58.037Z,9.03
2019-06-10T15:08:32.297Z,17.42
2019-06-10T15:11:02.874Z,9.93
2019-06-10T15:13:34.297Z,9.28
2019-06-10T15:16:04.665Z,15.15
2019-06-10T15:18:35.048Z,10.68
2019-06-10T15:21:05.336Z,9.03
2019-06-10T15:23:35.800Z,8.03
2019-06-10T15:26:09.931Z,9.00
2019-06-10T15:28:42.767Z,10.53
2019-06-10T15:33:44.171Z,8.35
2019-06-10T15:36:15.276Z,10.13
2019-06-10T15:38:45.611Z,11.45
2019-06-10T15:41:18.103Z,12.50
2019-06-10T15:43:47.839Z,11.48
2019-06-10T15:46:19.571Z,12.85
2019-06-10T15:48:53.836Z,9.03
2019-06-10T15:51:25.934Z,14.28
2019-06-10T15:53:54.946Z,14.40
2019-06-10T15:56:38.773Z,8.73
2019-06-10T15:58:57.184Z,7.83
2019-06-10T16:01:27.698Z,7.15
2019-06-10T16:03:58.017Z,7.25
2019-06-10T16:06:29.535Z,16.62
2019-06-10T16:08:59.772Z,14.50
2019-06-10T16:11:33.114Z,11.75
2019-06-10T16:14:02.897Z,13.80
2019-06-10T16:16:33.294Z,23.42
2019-06-10T16:19:03.897Z,24.37
2019-06-10T16:21:34.173Z,12.53
2019-06-10T16:24:04.423Z,11.70
2019-06-10T16:26:35.564Z,16.17
2019-06-10T16:29:05.887Z,11.60
2019-06-10T16:31:37.443Z,12.07
2019-06-10T16:34:07.648Z,14.33
2019-06-10T16:36:38.016Z,9.13
2019-06-10T16:39:08.477Z,9.15
2019-06-10T16:44:09.633Z,6.15
2019-06-10T16:46:43.642Z,17.98
2019-06-10T16:49:14.252Z,18.30
2019-06-10T16:51:44.569Z,14.70
2019-06-10T16:54:14.978Z,5.12
2019-06-10T16:56:45.271Z,6.42
2019-06-10T16:59:15.659Z,8.93
2019-06-10T17:01:45.929Z,4.28
2019-06-10T17:04:17.353Z,5.33
2019-06-10T17:06:47.636Z,10.08
2019-06-10T17:09:18.565Z,3.62
2019-06-10T17:11:48.937Z,4.55
2019-06-10T17:14:20.123Z,4.15
2019-06-10T17:16:52.289Z,6.25
2019-06-10T17:21:54.029Z,12.80
2019-06-10T17:24:27.180Z,4.97
2019-06-10T17:26:56.181Z,6.87
2019-06-10T17:29:28.496Z,7.90
2019-06-10T17:34:29.287Z,4.50
2019-06-10T17:39:32.054Z,8.50
2019-06-10T17:42:02.758Z,7.62
2019-06-10T17:44:33.135Z,15.05
2019-06-10T17:47:04.592Z,9.78
2019-06-10T17:49:35.002Z,8.98
2019-06-10T17:52:05.355Z,12.45
2019-06-10T17:54:35.586Z,5.97
2019-06-10T17:57:05.828Z,6.80
2019-06-10T17:59:36.088Z,6.75
2019-06-10T18:02:06.375Z,7.20
2019-06-10T18:04:36.696Z,11.95
2019-06-10T18:07:06.926Z,7.67
2019-06-10T18:09:44.316Z,7.65
2019-06-10T18:12:14.553Z,31.57
2019-06-10T18:14:44.878Z,9.03
2019-06-10T18:17:16.027Z,10.08
2019-06-10T18:19:46.285Z,12.23
2019-06-10T18:22:16.506Z,9.25
2019-06-10T18:24:46.787Z,13.60
2019-06-10T18:27:17.334Z,9.60
2019-06-10T18:29:47.717Z,11.18
2019-06-10T18:32:17.916Z,11.57
2019-06-10T18:34:49.284Z,15.75
2019-06-10T18:37:22.670Z,27.50
2019-06-10T18:39:53.448Z,27.90
2019-06-10T18:42:23.812Z,74.05
2019-06-10T18:44:54.040Z,35.45
2019-06-10T18:47:24.325Z,20.25
2019-06-10T18:49:56.319Z,19.45
2019-06-10T18:52:27.565Z,14.83
2019-06-10T18:54:57.380Z,14.68
2019-06-10T18:57:28.685Z,19.52
2019-06-10T18:59:59.493Z,21.68
2019-06-10T19:02:30.352Z,14.07
2019-06-10T19:05:02.659Z,11.28
2019-06-10T19:07:34.780Z,9.63
2019-06-10T19:10:11.104Z,19.00
2019-06-10T19:12:42.518Z,15.35
2019-06-10T19:15:13.528Z,14.05
2019-06-10T19:17:44.485Z,24.47
2019-06-10T19:20:16.530Z,15.90
2019-06-10T19:22:48.683Z,17.00
2019-06-10T19:27:48.854Z,14.30
2019-06-10T19:30:19.291Z,11.38
2019-06-10T19:32:49.474Z,18.15
2019-06-10T19:35:22.390Z,17.02
2019-06-10T19:37:52.383Z,15.98
2019-06-10T19:40:22.739Z,16.55
2019-06-10T19:42:52.605Z,10.85
2019-06-10T19:45:22.863Z,13.32
2019-06-10T19:47:56.555Z,24.63
2019-06-10T19:50:24.395Z,12.05
2019-06-10T19:52:54.093Z,8.98
2019-06-10T19:55:23.947Z,14.35
2019-06-10T19:57:53.641Z,17.25
2019-06-10T20:00:23.618Z,9.00
2019-06-10T20:02:53.326Z,11.80
2019-06-10T20:05:24.105Z,19.20
2019-06-10T20:07:53.772Z,21.40
2019-06-10T20:10:23.409Z,18.25
2019-06-10T20:12:53.731Z,15.60
2019-06-10T20:15:25.311Z,15.83
2019-06-10T20:17:54.930Z,17.77
2019-06-10T20:20:24.637Z,14.13
2019-06-10T20:22:57.314Z,10.13
2019-06-10T20:25:25.504Z,15.13
2019-06-10T20:27:55.204Z,14.50
2019-06-10T20:30:28.566Z,9.30
2019-06-10T20:32:56.741Z,17.48
2019-06-10T20:35:26.467Z,13.60
2019-06-10T20:37:56.197Z,15.90
2019-06-10T20:40:25.877Z,18.10
2019-06-10T20:42:55.654Z,17.55
2019-06-10T20:45:25.272Z,18.40
2019-06-10T20:47:54.907Z,15.88
2019-06-10T20:50:24.571Z,19.10
2019-06-10T20:52:54.276Z,17.90
2019-06-10T20:55:37.640Z,11.05
2019-06-10T20:58:03.468Z,13.50
2019-06-10T21:00:28.967Z,22.03
2019-06-10T21:02:59.689Z,16.45
2019-06-10T21:05:29.252Z,15.23
2019-06-10T21:07:58.881Z,8.93
2019-06-10T21:10:32.812Z,21.55
2019-06-10T21:13:03.070Z,20.23
2019-06-10T21:15:35.519Z,15.80
2019-06-10T21:18:05.672Z,9.17
2019-06-10T21:20:35.391Z,26.07
2019-06-10T21:23:05.083Z,18.05
2019-06-10T21:25:34.926Z,14.13
2019-06-10T21:28:04.586Z,15.45
2019-06-10T21:30:41.192Z,13.08
2019-06-10T21:33:05.696Z,11.10
2019-06-10T21:35:35.650Z,15.10
2019-06-10T21:38:05.398Z,14.00
2019-06-10T21:40:35.082Z,9.00
2019-06-10T21:43:04.756Z,11.85
2019-06-10T21:45:35.441Z,11.43
2019-06-10T21:48:05.125Z,12.13
2019-06-10T21:50:35.829Z,7.45
2019-06-10T21:53:05.615Z,16.12
2019-06-10T21:55:35.320Z,11.88
2019-06-10T21:58:06.130Z,10.75
2019-06-10T22:01:05.828Z,16.93
2019-06-10T22:03:23.154Z,10.93
2019-06-10T22:05:52.175Z,8.10
2019-06-10T22:08:21.851Z,18.20
2019-06-10T22:10:54.613Z,15.65
2019-06-10T22:13:22.957Z,12.73
2019-06-10T22:15:57.207Z,10.08
2019-06-10T22:18:26.956Z,15.32
2019-06-10T22:20:58.720Z,10.20
2019-06-10T22:23:28.379Z,18.67
2019-06-10T22:25:59.093Z,12.58
2019-06-10T22:28:28.804Z,9.45
2019-06-10T22:31:15.033Z,20.27
2019-06-10T22:33:29.704Z,13.03
2019-06-10T22:36:02.323Z,17.20
2019-06-10T22:41:03.321Z,14.25
2019-06-10T22:46:04.179Z,13.32
2019-06-10T22:48:35.947Z,12.82
2019-06-10T22:51:05.595Z,13.95
2019-06-10T22:53:35.263Z,11.38
2019-06-10T22:56:04.952Z,16.35
2019-06-10T22:58:34.582Z,13.30
2019-06-10T23:01:04.483Z,19.70
2019-06-10T23:03:34.227Z,12.93
2019-06-10T23:06:03.904Z,15.03
2019-06-10T23:08:34.536Z,15.13
2019-06-10T23:11:04.334Z,18.17
2019-06-10T23:13:34.174Z,10.35
2019-06-10T23:16:04.888Z,14.10
2019-06-10T23:18:34.521Z,12.73
2019-06-10T23:21:04.727Z,14.23
2019-06-10T23:23:35.461Z,12.55
2019-06-10T23:26:05.139Z,10.32
2019-06-10T23:28:34.801Z,9.93
2019-06-10T23:31:05.230Z,9.78
2019-06-10T23:33:35.301Z,10.18
2019-06-10T23:36:04.971Z,7.85
2019-06-10T23:38:34.690Z,18.42
2019-06-10T23:41:04.467Z,13.43
2019-06-10T23:43:34.221Z,19.30
2019-06-10T23:46:04.303Z,11.85
2019-06-10T23:48:37.625Z,11.45
2019-06-10T23:51:07.296Z,9.23
2019-06-10T23:53:37.349Z,10.70
2019-06-10T23:56:07.094Z,9.65
2019-06-10T23:58:39.927Z,10.23
